createdAt,value
2018-02-18T00:02:22.562Z,96.20
2018-02-18T00:04:50.016Z,96.30
2018-02-18T00:07:17.489Z,96.50
2018-02-18T00:09:44.944Z,96.40
2018-02-18T00:12:12.409Z,96.50
2018-02-18T00:14:49.776Z,96.60
2018-02-18T00:17:17.248Z,96.50
2018-02-18T00:19:44.720Z,96.60
2018-02-18T00:22:15.987Z,96.00
2018-02-18T00:24:43.438Z,96.10
2018-02-18T00:27:10.902Z,96.20
2018-02-18T00:29:38.356Z,96.30
2018-02-18T00:32:05.821Z,96.50
2018-02-18T00:34:33.284Z,96.60
2018-02-18T00:37:00.733Z,96.60
2018-02-18T00:39:28.201Z,96.70
2018-02-18T00:41:55.666Z,96.60
2018-02-18T00:44:23.181Z,96.30
2018-02-18T00:46:50.593Z,95.90
2018-02-18T00:49:18.064Z,96.20
2018-02-18T00:51:45.516Z,96.40
2018-02-18T00:54:12.983Z,96.30
2018-02-18T00:56:40.431Z,96.00
2018-02-18T00:59:07.904Z,95.80
2018-02-18T01:01:35.368Z,95.30
2018-02-18T01:04:02.844Z,95.10
2018-02-18T01:06:30.312Z,95.60
2018-02-18T01:08:57.820Z,96.00
2018-02-18T01:11:25.270Z,95.80
2018-02-18T01:13:53.497Z,95.40
2018-02-18T01:16:20.990Z,95.40
2018-02-18T01:18:48.452Z,95.30
2018-02-18T01:21:15.900Z,95.50
2018-02-18T01:23:43.372Z,95.60
2018-02-18T01:26:10.825Z,95.80
2018-02-18T01:28:38.303Z,95.90
2018-02-18T01:31:05.761Z,95.80
2018-02-18T01:33:33.228Z,95.50
2018-02-18T01:36:00.688Z,95.30
2018-02-18T01:38:28.137Z,95.10
2018-02-18T01:40:55.614Z,95.30
2018-02-18T01:43:23.081Z,95.70
2018-02-18T01:45:50.546Z,96.00
2018-02-18T01:48:18.015Z,96.10
2018-02-18T01:50:45.480Z,95.80
2018-02-18T01:53:13.701Z,96.00
2018-02-18T01:55:41.176Z,96.00
2018-02-18T01:58:08.642Z,96.00
2018-02-18T02:00:36.112Z,96.00
2018-02-18T02:03:03.556Z,96.10
2018-02-18T02:05:31.019Z,96.00
2018-02-18T02:07:58.481Z,95.70
2018-02-18T02:10:25.946Z,95.80
2018-02-18T02:12:53.409Z,95.70
2018-02-18T02:15:20.881Z,95.70
2018-02-18T02:17:48.341Z,95.70
2018-02-18T02:20:15.833Z,95.70
2018-02-18T02:22:43.303Z,95.70
2018-02-18T02:25:10.769Z,95.60
2018-02-18T02:27:38.242Z,95.70
2018-02-18T02:30:06.469Z,95.80
2018-02-18T02:32:33.965Z,95.80
2018-02-18T02:35:01.431Z,95.90
2018-02-18T02:37:28.888Z,95.90
2018-02-18T02:39:56.359Z,95.90
2018-02-18T02:42:23.828Z,95.60
2018-02-18T02:44:52.059Z,95.70
2018-02-18T02:47:19.642Z,95.70
2018-02-18T02:49:47.097Z,96.10
2018-02-18T02:52:14.588Z,95.90
2018-02-18T02:54:42.006Z,95.70
2018-02-18T02:57:09.551Z,96.00
2018-02-18T02:59:37.003Z,96.10
2018-02-18T03:02:04.466Z,96.00
2018-02-18T03:04:31.921Z,96.30
2018-02-18T03:06:59.382Z,96.40
2018-02-18T03:09:26.846Z,96.60
2018-02-18T03:11:54.300Z,96.50
2018-02-18T03:14:21.766Z,96.70
2018-02-18T03:16:49.228Z,96.60
2018-02-18T03:19:16.677Z,96.50
2018-02-18T03:21:44.140Z,96.30
2018-02-18T03:24:11.595Z,96.10
2018-02-18T03:26:39.833Z,96.30
2018-02-18T03:29:08.044Z,96.50
2018-02-18T03:31:36.273Z,96.60
2018-02-18T03:34:03.721Z,96.60
2018-02-18T03:36:31.183Z,96.70
2018-02-18T03:38:58.654Z,96.80
2018-02-18T03:41:26.111Z,97.00
2018-02-18T03:43:53.566Z,97.10
2018-02-18T03:46:21.013Z,97.00
2018-02-18T03:48:48.467Z,96.90
2018-02-18T03:51:16.699Z,96.90
2018-02-18T03:53:44.150Z,96.90
2018-02-18T03:56:11.615Z,96.90
2018-02-18T03:58:39.063Z,96.80
2018-02-18T04:01:06.544Z,96.90
2018-02-18T04:03:33.999Z,97.00
2018-02-18T04:06:01.458Z,97.00
2018-02-18T04:08:28.928Z,97.10
2018-02-18T04:10:56.405Z,97.10
2018-02-18T04:13:23.860Z,97.00
2018-02-18T04:15:51.316Z,96.70
2018-02-18T04:18:18.792Z,96.60
2018-02-18T04:20:46.241Z,96.60
2018-02-18T04:23:13.710Z,96.70
2018-02-18T04:25:41.153Z,96.60
2018-02-18T04:28:08.616Z,96.70
2018-02-18T04:30:36.066Z,96.80
2018-02-18T04:33:03.528Z,96.70
2018-02-18T04:35:30.978Z,96.90
2018-02-18T04:37:58.437Z,97.00
2018-02-18T04:40:26.649Z,96.70
2018-02-18T04:42:54.104Z,96.70
2018-02-18T04:45:21.552Z,96.50
2018-02-18T04:47:49.006Z,96.50
2018-02-18T04:50:16.469Z,96.60
2018-02-18T04:52:43.933Z,96.60
2018-02-18T04:55:11.404Z,96.80
2018-02-18T04:57:38.869Z,96.60
2018-02-18T05:00:06.327Z,97.10
2018-02-18T05:02:33.794Z,96.80
2018-02-18T05:05:01.243Z,97.00
2018-02-18T05:07:29.465Z,97.20
2018-02-18T05:09:56.920Z,97.20
2018-02-18T05:12:24.372Z,97.90
2018-02-18T05:14:51.841Z,97.90
2018-02-18T05:17:19.288Z,97.30
2018-02-18T05:19:46.752Z,96.90
2018-02-18T05:22:14.209Z,96.90
2018-02-18T05:24:41.672Z,97.10
2018-02-18T05:27:09.123Z,97.40
2018-02-18T05:29:36.588Z,97.30
2018-02-18T05:32:04.047Z,97.50
2018-02-18T05:34:32.324Z,97.90
2018-02-18T05:37:00.547Z,98.00
2018-02-18T05:39:28.004Z,98.00
2018-02-18T05:41:55.462Z,97.70
2018-02-18T05:44:22.935Z,97.20
2018-02-18T05:46:50.385Z,97.00
2018-02-18T05:49:17.847Z,97.00
2018-02-18T05:51:45.299Z,97.70
2018-02-18T05:54:12.761Z,97.90
2018-02-18T05:56:40.218Z,97.20
2018-02-18T05:59:07.680Z,97.40
2018-02-18T06:01:35.134Z,97.30
2018-02-18T06:04:02.592Z,97.60
2018-02-18T06:06:30.041Z,97.50
2018-02-18T06:08:58.275Z,97.10
2018-02-18T06:11:25.735Z,97.10
2018-02-18T06:13:53.197Z,97.20
2018-02-18T06:16:20.637Z,96.90
2018-02-18T06:18:48.121Z,96.50
2018-02-18T06:21:15.571Z,96.30
2018-02-18T06:23:43.041Z,96.00
2018-02-18T06:26:10.487Z,95.80
2018-02-18T06:28:37.956Z,95.70
2018-02-18T06:31:05.508Z,95.90
2018-02-18T06:33:34.086Z,96.10
2018-02-18T06:36:01.547Z,96.10
2018-02-18T06:38:29.004Z,95.90
2018-02-18T06:40:58.069Z,96.60
2018-02-18T06:43:25.509Z,96.60
2018-02-18T06:45:53.737Z,96.30
2018-02-18T06:48:21.965Z,96.60
2018-02-18T06:50:49.417Z,96.60
2018-02-18T06:53:16.873Z,96.70
2018-02-18T06:55:44.340Z,96.50
2018-02-18T06:58:11.792Z,96.60
2018-02-18T07:00:39.256Z,96.60
2018-02-18T07:03:06.700Z,96.70
2018-02-18T07:05:34.166Z,96.50
2018-02-18T07:08:01.617Z,96.50
2018-02-18T07:10:31.054Z,96.60
2018-02-18T07:12:58.489Z,96.60
2018-02-18T07:15:26.819Z,96.70
2018-02-18T07:17:54.276Z,96.70
2018-02-18T07:20:21.733Z,96.70
2018-02-18T07:22:49.181Z,96.80
2018-02-18T07:25:17.497Z,96.70
2018-02-18T07:27:44.948Z,96.60
2018-02-18T07:30:12.422Z,96.50
2018-02-18T07:32:39.874Z,96.70
2018-02-18T07:35:07.346Z,96.70
2018-02-18T07:37:34.792Z,96.50
2018-02-18T07:40:02.248Z,96.50
2018-02-18T07:42:29.705Z,96.50
2018-02-18T07:44:57.150Z,96.80
2018-02-18T07:47:24.610Z,96.40
2018-02-18T07:49:52.057Z,96.30
2018-02-18T07:52:20.288Z,96.50
2018-02-18T07:54:47.732Z,96.50
2018-02-18T07:57:15.193Z,96.30
2018-02-18T08:02:17.413Z,96.80
2018-02-18T08:04:44.861Z,96.80
2018-02-18T08:07:12.324Z,97.00
2018-02-18T08:09:39.785Z,97.00
2018-02-18T08:12:07.254Z,96.90
2018-02-18T08:14:34.706Z,97.00
2018-02-18T08:17:02.170Z,96.60
2018-02-18T08:19:29.618Z,96.60
2018-02-18T08:21:57.078Z,96.10
2018-02-18T08:24:24.540Z,95.90
2018-02-18T08:26:52.005Z,96.10
2018-02-18T08:29:19.454Z,95.90
2018-02-18T08:31:46.906Z,96.40
2018-02-18T08:34:15.124Z,96.20
2018-02-18T08:36:42.599Z,96.20
2018-02-18T08:39:10.045Z,96.70
2018-02-18T08:41:37.506Z,95.80
2018-02-18T08:44:04.952Z,96.40
2018-02-18T08:46:32.415Z,96.70
2018-02-18T08:48:59.865Z,96.70
2018-02-18T08:51:27.319Z,96.60
2018-02-18T08:53:55.545Z,96.20
2018-02-18T08:56:23.023Z,96.20
2018-02-18T08:58:50.481Z,96.30
2018-02-18T09:01:17.942Z,96.50
2018-02-18T09:03:45.401Z,96.40
2018-02-18T09:06:12.853Z,96.20
2018-02-18T09:08:40.396Z,96.50
2018-02-18T09:11:07.842Z,96.20
2018-02-18T09:13:35.303Z,96.40
2018-02-18T09:16:03.524Z,96.20
2018-02-18T09:18:30.978Z,96.10
2018-02-18T09:20:58.437Z,96.20
2018-02-18T09:23:25.900Z,96.20
2018-02-18T09:25:53.349Z,96.10
2018-02-18T09:28:20.809Z,95.80
2018-02-18T09:30:48.263Z,95.70
2018-02-18T09:33:15.716Z,96.00
2018-02-18T09:35:43.941Z,96.40
2018-02-18T09:38:11.396Z,96.40
2018-02-18T09:40:38.862Z,96.50
2018-02-18T09:43:06.328Z,96.20
2018-02-18T09:45:33.792Z,96.00
2018-02-18T09:48:01.242Z,95.80
2018-02-18T09:50:28.693Z,96.30
2018-02-18T09:52:56.149Z,96.50
2018-02-18T09:55:23.766Z,96.30
2018-02-18T09:57:51.211Z,96.20
2018-02-18T10:00:18.673Z,95.80
2018-02-18T10:02:46.124Z,95.40
2018-02-18T10:05:14.357Z,95.60
2018-02-18T10:07:42.571Z,95.60
2018-02-18T10:10:10.046Z,95.60
2018-02-18T10:12:37.499Z,95.60
2018-02-18T10:15:04.959Z,95.60
2018-02-18T10:17:32.414Z,94.90
2018-02-18T10:19:59.888Z,94.80
2018-02-18T10:22:27.330Z,94.70
2018-02-18T10:24:54.774Z,94.70
2018-02-18T10:27:22.994Z,95.00
2018-02-18T10:29:50.440Z,95.00
2018-02-18T10:32:17.904Z,95.50
2018-02-18T10:34:45.353Z,95.60
2018-02-18T10:37:12.828Z,95.30
2018-02-18T10:39:40.288Z,95.00
2018-02-18T10:42:07.734Z,94.80
2018-02-18T10:44:35.965Z,94.10
2018-02-18T10:47:03.449Z,94.10
2018-02-18T10:49:30.933Z,95.20
2018-02-18T10:51:59.155Z,94.60
2018-02-18T10:54:26.598Z,94.60
2018-02-18T10:56:54.086Z,95.00
2018-02-18T10:59:22.301Z,94.40
2018-02-18T11:01:49.771Z,94.50
2018-02-18T11:04:17.985Z,94.80
2018-02-18T11:06:45.452Z,94.80
2018-02-18T11:09:12.898Z,94.70
2018-02-18T11:11:40.354Z,95.00
2018-02-18T11:14:08.568Z,93.70
2018-02-18T11:16:36.017Z,93.70
2018-02-18T11:19:03.473Z,94.70
2018-02-18T11:21:30.943Z,93.40
2018-02-18T11:23:58.396Z,94.00
2018-02-18T11:26:25.858Z,94.40
2018-02-18T11:28:53.309Z,94.60
2018-02-18T11:31:20.764Z,94.30
2018-02-18T11:33:48.999Z,94.30
2018-02-18T11:36:17.232Z,94.10
2018-02-18T11:38:45.441Z,93.60
2018-02-18T11:41:12.899Z,93.50
2018-02-18T11:43:40.349Z,93.50
2018-02-18T11:46:07.814Z,93.40
2018-02-18T11:48:35.274Z,94.20
2018-02-18T11:51:02.734Z,94.00
2018-02-18T11:53:30.186Z,93.80
2018-02-18T11:55:57.649Z,93.90
2018-02-18T11:58:25.105Z,93.40
2018-02-18T12:00:53.336Z,93.20
2018-02-18T12:03:20.805Z,93.20
2018-02-18T12:05:48.294Z,93.50
2018-02-18T12:08:15.740Z,93.90
2018-02-18T12:10:43.210Z,93.90
2018-02-18T12:13:10.686Z,93.90
2018-02-18T12:15:38.125Z,94.00
2018-02-18T12:18:05.593Z,93.70
2018-02-18T12:20:33.041Z,93.90
2018-02-18T12:23:00.501Z,93.80
2018-02-18T12:25:27.960Z,92.90
2018-02-18T12:27:55.425Z,93.70
2018-02-18T12:30:22.880Z,94.70
2018-02-18T12:32:50.351Z,93.90
2018-02-18T12:35:17.799Z,94.10
2018-02-18T12:37:45.269Z,94.00
2018-02-18T12:40:12.708Z,94.00
2018-02-18T12:42:40.177Z,93.60
2018-02-18T12:45:08.791Z,93.40
2018-02-18T12:47:36.261Z,93.50
2018-02-18T12:50:03.715Z,93.40
2018-02-18T12:52:31.177Z,93.50
2018-02-18T12:54:58.636Z,93.40
2018-02-18T12:57:26.108Z,93.40
2018-02-18T12:59:53.548Z,93.70
2018-02-18T13:02:21.008Z,93.70
2018-02-18T13:04:48.466Z,93.50
2018-02-18T13:07:15.933Z,93.10
2018-02-18T13:09:43.385Z,93.60
2018-02-18T13:12:10.837Z,93.40
2018-02-18T13:14:38.290Z,93.70
2018-02-18T13:17:05.749Z,93.70
2018-02-18T13:19:33.202Z,93.60
2018-02-18T13:22:01.818Z,93.30
2018-02-18T13:24:29.280Z,93.30
2018-02-18T13:26:56.760Z,93.70
2018-02-18T13:29:24.186Z,93.50
2018-02-18T13:31:51.639Z,93.50
2018-02-18T13:34:19.868Z,92.90
2018-02-18T13:36:47.316Z,92.90
2018-02-18T13:39:14.777Z,93.20
2018-02-18T13:41:42.225Z,93.40
2018-02-18T13:44:09.691Z,93.10
2018-02-18T13:46:38.372Z,93.20
2018-02-18T13:49:06.585Z,93.60
2018-02-18T13:51:34.237Z,93.60
2018-02-18T13:54:01.963Z,93.80
2018-02-18T13:56:31.565Z,93.10
2018-02-18T13:58:59.209Z,93.20
2018-02-18T14:01:29.512Z,94.20
2018-02-18T14:03:57.806Z,93.30
2018-02-18T14:06:25.266Z,93.30
2018-02-18T14:08:52.726Z,93.80
2018-02-18T14:11:21.849Z,94.00
2018-02-18T14:13:49.438Z,93.80
2018-02-18T14:16:16.883Z,93.40
2018-02-18T14:18:44.404Z,93.80
2018-02-18T14:21:12.093Z,93.60
2018-02-18T14:23:39.612Z,93.90
2018-02-18T14:26:07.078Z,93.40
2018-02-18T14:28:35.589Z,93.20
2018-02-18T14:31:03.056Z,93.20
2018-02-18T14:33:30.505Z,93.10
2018-02-18T14:35:57.971Z,93.40
2018-02-18T14:38:25.417Z,93.20
2018-02-18T14:40:53.964Z,93.40
2018-02-18T14:43:33.293Z,93.80
2018-02-18T14:46:12.631Z,93.20
2018-02-18T14:48:52.041Z,93.10
2018-02-18T14:51:31.315Z,93.00
2018-02-18T14:54:11.482Z,93.50
2018-02-18T14:59:41.350Z,93.10
2018-02-18T15:02:08.844Z,93.10
2018-02-18T15:04:36.266Z,93.60
2018-02-18T15:07:03.717Z,93.70
2018-02-18T15:09:31.169Z,93.50
2018-02-18T15:11:58.631Z,93.80
2018-02-18T15:14:26.082Z,94.00
2018-02-18T15:16:53.531Z,94.00
2018-02-18T15:19:21.768Z,93.70
2018-02-18T15:21:49.218Z,93.70
2018-02-18T15:24:16.682Z,93.70
2018-02-18T15:26:44.145Z,93.40
2018-02-18T15:29:11.622Z,93.90
2018-02-18T15:31:39.066Z,93.50
2018-02-18T15:34:06.516Z,93.50
2018-02-18T15:36:33.973Z,93.00
2018-02-18T15:39:01.417Z,93.90
2018-02-18T15:41:28.904Z,93.80
2018-02-18T15:43:56.369Z,93.50
2018-02-18T15:46:23.817Z,93.40
2018-02-18T15:48:51.276Z,93.50
2018-02-18T15:51:18.729Z,93.40
2018-02-18T15:53:46.184Z,93.30
2018-02-18T15:56:14.408Z,93.30
2018-02-18T15:58:41.868Z,93.40
2018-02-18T16:01:09.346Z,93.40
2018-02-18T16:03:36.796Z,93.70
2018-02-18T16:06:04.261Z,93.90
2018-02-18T16:08:31.717Z,93.70
2018-02-18T16:10:59.190Z,93.50
2018-02-18T16:13:26.639Z,93.50
2018-02-18T16:15:54.108Z,94.10
2018-02-18T16:18:21.557Z,93.80
2018-02-18T16:20:49.022Z,93.80
2018-02-18T16:23:16.468Z,94.50
2018-02-18T16:25:43.933Z,94.90
2018-02-18T16:28:11.386Z,94.50
2018-02-18T16:30:38.849Z,94.50
2018-02-18T16:33:06.304Z,94.70
2018-02-18T16:35:34.523Z,94.50
2018-02-18T16:38:01.968Z,94.50
2018-02-18T16:40:29.437Z,94.50
2018-02-18T16:42:56.902Z,94.50
2018-02-18T16:45:24.348Z,94.60
2018-02-18T16:47:51.814Z,94.70
2018-02-18T16:50:19.252Z,94.80
2018-02-18T16:52:47.477Z,94.90
2018-02-18T16:55:14.919Z,94.90
2018-02-18T16:57:42.382Z,94.60
2018-02-18T17:00:09.873Z,94.80
2018-02-18T17:02:37.339Z,94.70
2018-02-18T17:05:05.552Z,94.60
2018-02-18T17:07:33.805Z,94.60
2018-02-18T17:10:01.252Z,94.60
2018-02-18T17:12:28.713Z,94.70
2018-02-18T17:14:56.160Z,94.80
2018-02-18T17:17:23.632Z,95.00
2018-02-18T17:19:51.085Z,95.20
2018-02-18T17:22:18.545Z,95.20
2018-02-18T17:24:46.002Z,95.20
2018-02-18T17:27:13.470Z,95.20
2018-02-18T17:29:40.949Z,95.10
2018-02-18T17:32:08.397Z,95.30
2018-02-18T17:34:35.845Z,95.40
2018-02-18T17:37:03.309Z,95.30
2018-02-18T17:39:30.763Z,95.10
2018-02-18T17:41:58.213Z,95.20
2018-02-18T17:44:26.425Z,95.20
2018-02-18T17:46:53.885Z,95.30
2018-02-18T17:49:21.350Z,95.30
2018-02-18T17:51:49.709Z,95.30
2018-02-18T17:54:17.168Z,95.10
2018-02-18T17:56:44.622Z,95.20
2018-02-18T17:59:12.845Z,95.40
2018-02-18T18:01:40.309Z,95.40
2018-02-18T18:04:07.778Z,95.30
2018-02-18T18:06:35.231Z,95.40
2018-02-18T18:09:02.696Z,95.40
2018-02-18T18:11:30.159Z,95.60
2018-02-18T18:13:57.608Z,95.70
2018-02-18T18:16:25.061Z,95.60
2018-02-18T18:18:52.530Z,95.60
2018-02-18T18:21:19.985Z,95.50
2018-02-18T18:23:47.472Z,95.50
2018-02-18T18:26:14.916Z,95.50
2018-02-18T18:28:43.139Z,95.60
2018-02-18T18:31:10.589Z,95.60
2018-02-18T18:33:38.048Z,95.70
2018-02-18T18:36:05.501Z,95.70
2018-02-18T18:38:32.962Z,95.70
2018-02-18T18:41:00.419Z,95.80
2018-02-18T18:43:27.868Z,95.80
2018-02-18T18:45:55.317Z,95.70
2018-02-18T18:48:22.760Z,95.80
2018-02-18T18:50:50.988Z,95.60
2018-02-18T18:53:19.204Z,95.30
2018-02-18T18:55:46.663Z,95.30
2018-02-18T18:58:14.108Z,95.10
2018-02-18T19:00:41.585Z,95.00
2018-02-18T19:03:09.055Z,95.20
2018-02-18T19:05:36.496Z,95.30
2018-02-18T19:08:03.944Z,95.50
2018-02-18T19:10:31.404Z,95.50
2018-02-18T19:12:58.856Z,95.70
2018-02-18T19:15:26.317Z,95.60
2018-02-18T19:17:53.773Z,95.20
2018-02-18T19:20:21.233Z,95.00
2018-02-18T19:22:48.673Z,95.40
2018-02-18T19:25:16.912Z,95.20
2018-02-18T19:27:44.361Z,95.50
2018-02-18T19:30:11.822Z,95.10
2018-02-18T19:32:39.277Z,95.30
2018-02-18T19:35:06.740Z,95.10
2018-02-18T19:37:34.188Z,95.10
2018-02-18T19:40:01.660Z,94.90
2018-02-18T19:42:29.120Z,95.30
2018-02-18T19:44:56.575Z,95.50
2018-02-18T19:47:24.034Z,95.40
2018-02-18T19:49:51.488Z,95.20
2018-02-18T19:52:18.937Z,95.40
2018-02-18T19:54:47.170Z,95.80
2018-02-18T19:57:14.623Z,95.80
2018-02-18T19:59:42.072Z,95.80
2018-02-18T20:02:09.532Z,95.80
2018-02-18T20:04:36.989Z,95.70
2018-02-18T20:07:04.449Z,95.70
2018-02-18T20:09:31.986Z,95.60
2018-02-18T20:12:00.216Z,95.40
2018-02-18T20:14:27.658Z,95.40
2018-02-18T20:16:55.113Z,95.60
2018-02-18T20:19:22.572Z,95.70
2018-02-18T20:21:50.034Z,95.50
2018-02-18T20:24:17.480Z,95.50
2018-02-18T20:26:45.708Z,95.30
2018-02-18T20:29:13.152Z,95.30
2018-02-18T20:31:40.611Z,95.80
2018-02-18T20:34:08.062Z,95.90
2018-02-18T20:36:35.538Z,95.90
2018-02-18T20:39:02.985Z,96.00
2018-02-18T20:41:30.433Z,95.80
2018-02-18T20:43:58.648Z,96.00
2018-02-18T20:46:26.104Z,96.00
2018-02-18T20:48:53.549Z,95.90
2018-02-18T20:51:21.015Z,95.70
2018-02-18T20:53:49.224Z,95.90
2018-02-18T20:56:16.681Z,95.90
2018-02-18T20:58:44.128Z,96.10
2018-02-18T21:01:11.597Z,96.20
2018-02-18T21:03:39.048Z,96.20
2018-02-18T21:06:06.523Z,96.50
2018-02-18T21:08:33.952Z,96.20
2018-02-18T21:11:02.181Z,96.00
2018-02-18T21:13:29.628Z,96.00
2018-02-18T21:15:57.082Z,96.10
2018-02-18T21:18:24.546Z,96.30
2018-02-18T21:20:52.108Z,96.20
2018-02-18T21:23:19.574Z,96.00
2018-02-18T21:25:47.041Z,96.20
2018-02-18T21:28:14.496Z,96.20
2018-02-18T21:30:41.953Z,96.10
2018-02-18T21:33:09.422Z,96.10
2018-02-18T21:35:36.881Z,95.90
2018-02-18T21:38:04.328Z,96.00
2018-02-18T21:40:31.783Z,96.20
2018-02-18T21:43:00.011Z,96.10
2018-02-18T21:45:27.453Z,96.10
2018-02-18T21:47:54.921Z,96.10
2018-02-18T21:50:22.377Z,96.10
2018-02-18T21:52:49.835Z,96.00
2018-02-18T21:55:17.295Z,96.00
2018-02-18T21:57:44.748Z,95.70
2018-02-18T22:00:12.200Z,95.70
2018-02-18T22:02:40.426Z,95.40
2018-02-18T22:05:07.877Z,95.40
2018-02-18T22:07:35.332Z,95.40
2018-02-18T22:10:02.784Z,95.30
2018-02-18T22:12:30.253Z,95.30
2018-02-18T22:14:57.712Z,95.30
2018-02-18T22:17:25.177Z,95.30
2018-02-18T22:19:52.637Z,95.30
2018-02-18T22:22:20.102Z,95.20
2018-02-18T22:24:47.561Z,95.30
2018-02-18T22:27:15.026Z,95.40
2018-02-18T22:29:42.478Z,95.10
2018-02-18T22:32:09.941Z,95.30
2018-02-18T22:34:38.166Z,95.50
2018-02-18T22:37:05.614Z,95.50
2018-02-18T22:39:33.074Z,95.70
2018-02-18T22:42:00.540Z,95.80
2018-02-18T22:44:28.008Z,95.70
2018-02-18T22:46:55.465Z,95.70
2018-02-18T22:49:23.689Z,95.30
2018-02-18T22:51:51.922Z,95.10
2018-02-18T22:54:19.372Z,95.10
2018-02-18T22:56:46.824Z,95.00
2018-02-18T22:59:14.320Z,95.00
2018-02-18T23:01:41.785Z,95.00
2018-02-18T23:04:09.229Z,95.20
2018-02-18T23:06:36.688Z,95.10
2018-02-18T23:09:04.148Z,95.20
2018-02-18T23:11:31.588Z,95.10
2018-02-18T23:13:59.820Z,95.20
2018-02-18T23:16:27.264Z,95.10
2018-02-18T23:18:54.728Z,95.30
2018-02-18T23:21:22.183Z,95.20
2018-02-18T23:23:49.631Z,95.20
2018-02-18T23:26:18.862Z,95.30
2018-02-18T23:28:46.336Z,95.20
2018-02-18T23:31:13.780Z,95.20
2018-02-18T23:33:41.240Z,95.00
2018-02-18T23:36:08.694Z,95.00
2018-02-18T23:38:36.148Z,95.10
2018-02-18T23:41:03.600Z,95.00
2018-02-18T23:43:31.820Z,95.20
2018-02-18T23:45:59.284Z,95.20
2018-02-18T23:48:26.737Z,95.30
2018-02-18T23:50:54.196Z,95.20
2018-02-18T23:53:21.682Z,95.10
2018-02-18T23:55:49.137Z,95.00
2018-02-18T23:58:16.589Z,95.10
